Time;durP1;ratioP1;P1;durP2;ratioP2;P2;SDS_P1;SDS_P2;PMS_P1;PMS_P2;Temp;Humidity;BMP_temperature;BMP_pressure;BME280_temperature;BME280_humidity;BME280_pressure;Samples;Min_cycle;Max_cycle;Signal;HPM_P1;HPM_P2
2021/10/13 20:06:48;;;;;;;4.25;1.77;;;11.70;99.90;;;9.19;100.00;102249.28;2549388;30;137890;-41
2021/10/13 20:09:15;;;;;;;5.30;2.10;;;10.90;99.90;;;9.19;100.00;102257.47;2569068;30;136852;-38
2021/10/13 20:11:45;;;;;;;7.25;2.17;;;10.80;99.90;;;9.16;100.00;102263.25;2567377;30;138382;-38
2021/10/13 20:14:13;;;;;;;4.10;2.00;;;10.70;99.90;;;9.11;100.00;102264.75;2567926;30;137550;-38
2021/10/13 20:16:41;;;;;;;3.70;1.98;;;10.70;99.90;;;9.09;100.00;102266.81;2564992;30;138941;-41
2021/10/13 20:19:09;;;;;;;5.18;1.80;;;10.60;99.90;;;9.13;100.00;102273.63;2567935;30;137403;-41
2021/10/13 20:21:37;;;;;;;3.50;2.00;;;10.70;99.90;;;9.10;100.00;102271.22;2567623;30;138242;-38
2021/10/13 20:24:05;;;;;;;4.88;2.22;;;10.70;99.90;;;9.11;100.00;102283.81;2568037;30;136775;-41
2021/10/13 20:26:32;;;;;;;5.30;2.33;;;10.70;99.90;;;9.11;100.00;102281.09;2567447;30;136977;-41
2021/10/13 20:29:00;;;;;;;5.30;3.00;;;10.70;99.90;;;9.11;100.00;102286.53;2566613;30;137763;-38
2021/10/13 20:31:27;;;;;;;5.30;2.53;;;10.70;99.90;;;9.06;100.00;102278.88;2568022;30;137172;-41
2021/10/13 20:33:55;;;;;;;5.57;2.70;;;10.60;99.90;;;9.12;100.00;102291.81;2566218;30;138158;-41
2021/10/13 20:36:23;;;;;;;4.95;2.63;;;10.70;99.90;;;9.12;100.00;102288.25;2568213;30;138247;-41
2021/10/13 20:38:50;;;;;;;6.18;2.92;;;10.70;99.90;;;9.12;100.00;102293.69;2566006;30;137006;-38
2021/10/13 20:41:18;;;;;;;8.25;3.17;;;10.70;99.90;;;9.09;100.00;102291.31;2567333;30;137110;-38
2021/10/13 20:43:47;;;;;;;6.40;2.75;;;10.60;99.90;;;9.07;100.00;102281.44;2565905;30;138302;-41
2021/10/13 20:46:15;;;;;;;6.43;2.97;;;10.60;99.90;;;9.12;100.00;102288.25;2567160;30;139284;-38
2021/10/13 20:48:44;;;;;;;5.57;3.00;;;10.70;99.90;;;9.15;100.00;102288.78;2568206;30;137420;-41
2021/10/13 20:51:11;;;;;;;7.93;2.55;;;10.70;99.90;;;9.16;100.00;102286.88;2568015;30;138352;-41
2021/10/13 20:53:39;;;;;;;8.80;3.08;;;10.70;99.90;;;9.17;100.00;102294.91;2567713;30;137361;-41
2021/10/13 20:56:06;;;;;;;6.68;2.60;;;10.70;99.90;;;9.19;100.00;102301.03;2566699;30;136711;-41
2021/10/13 20:58:35;;;;;;;6.60;2.90;;;10.70;99.90;;;9.23;100.00;102298.81;2567913;30;136694;-41
2021/10/13 21:01:02;;;;;;;4.88;2.80;;;10.80;99.90;;;9.25;100.00;102296.75;2567315;30;137509;-41
2021/10/13 21:03:30;;;;;;;;;;;10.80;99.90;;;9.25;100.00;102299.50;2567224;30;137993;-41
2021/10/13 21:05:58;;;;;;;5.60;2.70;;;10.80;99.90;;;9.24;100.00;102297.78;2567780;30;138487;-39
2021/10/13 21:08:26;;;;;;;6.93;2.95;;;10.80;99.90;;;9.20;100.00;102282.81;2568085;30;137643;-41
2021/10/13 21:10:55;;;;;;;5.32;2.67;;;10.80;99.90;;;9.27;100.00;102288.44;2569100;30;138558;-38
2021/10/13 21:13:22;;;;;;;3.72;2.50;;;10.80;99.90;;;9.23;100.00;102282.47;2566691;30;137396;-38
2021/10/13 21:15:50;;;;;;;4.72;2.70;;;10.80;99.90;;;9.28;100.00;102291.00;2567853;30;138489;-38
2021/10/13 21:18:18;;;;;;;6.60;3.10;;;10.80;99.90;;;9.27;100.00;102292.00;2567785;30;136802;-41
2021/10/13 21:20:45;;;;;;;7.97;3.20;;;10.80;99.90;;;9.29;100.00;102287.28;2567356;30;139386;-41
2021/10/13 21:23:16;;;;;;;6.57;2.92;;;10.80;99.90;;;9.29;100.00;102279.09;2567755;30;137711;-41
2021/10/13 21:25:43;;;;;;;7.03;3.05;;;10.80;99.90;;;9.30;100.00;102291.69;2567177;30;136835;-41
2021/10/13 21:28:11;;;;;;;5.90;2.83;;;10.80;99.90;;;9.29;100.00;102283.69;2568597;30;137462;-41
2021/10/13 21:30:39;;;;;;;4.50;2.85;;;10.90;99.90;;;9.30;100.00;102294.41;2568275;30;137121;-41
2021/10/13 21:33:06;;;;;;;7.70;2.80;;;10.80;99.90;;;9.33;100.00;102299.53;2568389;30;137277;-41
2021/10/13 21:35:37;;;;;;;4.85;2.42;;;10.90;99.90;;;9.32;100.00;102291.50;2564807;30;138292;-41
2021/10/13 21:38:05;;;;;;;6.25;2.65;;;10.90;99.90;;;9.31;100.00;102290.69;2567497;30;136793;-38
2021/10/13 21:40:33;;;;;;;7.13;3.03;;;10.90;99.90;;;9.33;100.00;102283.19;2566086;30;138069;-41
2021/10/13 21:43:01;;;;;;;7.47;3.00;;;10.80;99.90;;;9.32;100.00;102288.78;2568148;30;137581;-41
2021/10/13 21:45:28;;;;;;;9.45;3.05;;;10.80;99.90;;;9.32;100.00;102286.94;2563886;30;137545;-41
2021/10/13 21:47:56;;;;;;;6.53;2.90;;;10.90;99.90;;;9.31;100.00;102285.22;2566693;30;136668;-41
2021/10/13 21:50:24;;;;;;;6.78;2.58;;;10.90;99.90;;;9.30;100.00;102283.53;2565955;30;138499;-41
2021/10/13 21:52:51;;;;;;;;;;;10.80;99.90;;;9.33;100.00;102283.19;2568755;30;137443;-41
2021/10/13 21:55:19;;;;;;;5.78;3.10;;;10.80;99.90;;;9.33;100.00;102277.72;2567219;30;138580;-41
2021/10/13 21:57:46;;;;;;;5.88;3.22;;;10.90;99.90;;;9.32;100.00;102281.47;2568492;30;136866;-38
2021/10/13 22:00:17;;;;;;;5.22;2.78;;;10.90;99.90;;;9.32;100.00;102280.63;2567614;30;138497;-41
2021/10/13 22:02:45;;;;;;;5.55;2.63;;;10.90;99.90;;;9.34;100.00;102278.56;2567127;30;136776;-41
2021/10/13 22:05:13;;;;;;;5.55;3.00;;;10.90;99.90;;;9.27;100.00;102274.81;2568379;30;138100;-38
2021/10/13 22:07:41;;;;;;;6.00;2.63;;;10.80;99.90;;;9.31;100.00;102285.22;2566941;30;137353;-41
2021/10/13 22:10:11;;;;;;;5.45;2.92;;;10.80;99.90;;;9.29;100.00;102284.53;2566126;30;137500;-38
2021/10/13 22:12:39;;;;;;;6.40;3.22;;;10.80;99.90;;;9.33;100.00;102274.16;2566271;30;137704;-38
2021/10/13 22:15:10;;;;;;;5.45;3.00;;;10.90;99.90;;;9.33;100.00;102272.28;2567983;30;137303;-41
2021/10/13 22:17:39;;;;;;;6.90;3.08;;;10.90;99.90;;;9.40;99.43;102272.44;2567904;30;136713;-41
2021/10/13 22:20:12;;;;;;;6.40;3.10;;;10.90;99.90;;;9.38;99.76;102271.75;2567871;30;137343;-41
2021/10/13 22:22:41;;;;;;;5.63;3.08;;;10.90;99.90;;;9.38;99.89;102270.94;2567815;30;138520;-38
2021/10/13 22:25:11;;;;;;;6.03;2.88;;;10.90;99.90;;;9.33;99.42;102258.66;2568110;30;138329;-41
2021/10/13 22:27:43;;;;;;;5.50;2.97;;;10.90;99.90;;;9.38;99.17;102268.19;2568881;30;137976;-39
2021/10/13 22:30:15;;;;;;;5.57;2.95;;;10.90;99.90;;;9.41;99.24;102260.53;2568087;30;138433;-41
2021/10/13 22:32:46;;;;;;;7.07;3.28;;;10.90;99.90;;;9.40;98.73;102257.97;2566352;30;137573;-41
2021/10/13 22:35:18;;;;;;;5.88;3.05;;;10.90;99.90;;;9.38;98.94;102257.31;2567797;30;137209;-41
2021/10/13 22:37:47;;;;;;;6.25;2.90;;;10.90;99.90;;;9.35;99.25;102255.75;2569192;30;137149;-41
2021/10/13 22:40:16;;;;;;;4.95;2.55;;;10.90;99.90;;;9.35;99.56;102250.31;2567427;30;138686;-41
2021/10/13 22:42:45;;;;;;;6.50;3.17;;;10.90;99.90;;;9.35;99.46;102256.63;2566188;30;137793;-41
2021/10/13 22:45:14;;;;;;;5.63;2.72;;;10.90;99.90;;;9.34;99.52;102254.91;2566398;30;139243;-41
2021/10/13 22:47:42;;;;;;;4.78;3.15;;;10.90;99.90;;;9.33;99.72;102258.66;2567958;30;138217;-41
2021/10/13 22:50:10;;;;;;;5.95;3.10;;;10.90;99.90;;;9.32;99.69;102256.97;2566296;30;137143;-41
2021/10/13 22:52:38;;;;;;;4.13;2.67;;;10.80;99.90;;;9.37;99.21;102264.63;2568456;30;137249;-41
2021/10/13 22:55:09;;;;;;;7.20;2.97;;;10.90;99.90;;;9.34;98.58;102257.66;2567649;30;137167;-41
2021/10/13 22:57:36;;;;;;;4.85;3.10;;;10.90;99.90;;;9.33;98.67;102258.66;2567283;30;137482;-41
2021/10/13 23:00:06;;;;;;;8.98;2.95;;;10.90;99.90;;;9.30;98.87;102247.25;2565743;30;138514;-41
2021/10/13 23:02:33;;;;;;;7.68;2.90;;;10.90;99.90;;;9.33;99.05;102258.66;2569325;30;136690;-40
2021/10/13 23:05:02;;;;;;;5.78;2.90;;;10.80;99.90;;;9.37;98.05;102255.59;2567851;30;138465;-40
2021/10/13 23:07:30;;;;;;;6.22;2.92;;;10.90;99.90;;;9.41;98.18;102251.50;2568515;30;137327;-40
2021/10/13 23:09:58;;;;;;;7.13;3.00;;;10.90;99.90;;;9.39;98.39;102256.28;2568969;30;137535;-40
2021/10/13 23:12:25;;;;;;;6.93;2.53;;;10.90;99.90;;;9.35;98.77;102248.44;2568409;30;136878;-40
2021/10/13 23:14:53;;;;;;;4.35;2.72;;;10.90;99.90;;;9.36;97.65;102249.28;2567580;30;137341;-40
2021/10/13 23:17:21;;;;;;;3.83;2.50;;;10.90;99.90;;;9.34;97.43;102246.75;2568450;30;136901;-40
2021/10/13 23:19:49;;;;;;;5.18;2.65;;;10.90;99.90;;;9.34;98.06;102246.75;2568228;30;138179;-40
2021/10/13 23:22:16;;;;;;;6.97;2.78;;;10.90;99.90;;;9.28;98.03;102235.69;2569331;30;136835;-40
2021/10/13 23:24:44;;;;;;;5.00;2.60;;;10.90;99.90;;;9.31;98.68;102244.38;2568337;30;137276;-40
2021/10/13 23:27:11;;;;;;;6.45;3.00;;;10.80;99.90;;;9.30;98.83;102233.63;2569185;30;137296;-41
